sensor_id;sensor_type;location;lat;lon;timestamp;P1;durP1;ratioP1;P2;durP2;ratioP2
317;SDS011;146;53.448;10.228;2023-02-01T00:01:05;9.20;;;2.23;;
317;SDS011;146;53.448;10.228;2023-02-01T00:03:32;12.70;;;2.60;;
317;SDS011;146;53.448;10.228;2023-02-01T00:05:59;9.07;;;2.73;;
317;SDS011;146;53.448;10.228;2023-02-01T00:08:26;13.37;;;2.97;;
317;SDS011;146;53.448;10.228;2023-02-01T00:11:00;7.90;;;2.70;;
317;SDS011;146;53.448;10.228;2023-02-01T00:13:29;9.80;;;2.27;;
317;SDS011;146;53.448;10.228;2023-02-01T00:16:04;9.07;;;2.97;;
317;SDS011;146;53.448;10.228;2023-02-01T00:18:31;7.63;;;2.73;;
317;SDS011;146;53.448;10.228;2023-02-01T00:20:59;13.80;;;3.40;;
317;SDS011;146;53.448;10.228;2023-02-01T00:23:26;9.67;;;2.83;;
317;SDS011;146;53.448;10.228;2023-02-01T00:25:53;19.27;;;3.70;;
317;SDS011;146;53.448;10.228;2023-02-01T00:28:20;7.77;;;2.83;;
317;SDS011;146;53.448;10.228;2023-02-01T00:30:54;10.00;;;3.00;;
317;SDS011;146;53.448;10.228;2023-02-01T00:33:22;6.90;;;3.23;;
317;SDS011;146;53.448;10.228;2023-02-01T00:35:49;11.13;;;3.47;;
317;SDS011;146;53.448;10.228;2023-02-01T00:38:16;12.30;;;3.80;;
317;SDS011;146;53.448;10.228;2023-02-01T00:40:45;8.03;;;3.00;;
317;SDS011;146;53.448;10.228;2023-02-01T00:43:11;14.43;;;3.93;;
317;SDS011;146;53.448;10.228;2023-02-01T00:45:38;11.33;;;4.63;;
317;SDS011;146;53.448;10.228;2023-02-01T00:48:06;11.07;;;3.30;;
317;SDS011;146;53.448;10.228;2023-02-01T00:50:33;8.70;;;3.17;;
317;SDS011;146;53.448;10.228;2023-02-01T00:53:00;15.03;;;3.80;;
317;SDS011;146;53.448;10.228;2023-02-01T00:55:27;23.33;;;6.20;;
317;SDS011;146;53.448;10.228;2023-02-01T00:57:53;7.40;;;3.37;;
317;SDS011;146;53.448;10.228;2023-02-01T01:00:21;12.20;;;4.07;;
317;SDS011;146;53.448;10.228;2023-02-01T01:02:48;11.97;;;3.63;;
317;SDS011;146;53.448;10.228;2023-02-01T01:05:16;17.10;;;3.70;;
317;SDS011;146;53.448;10.228;2023-02-01T01:07:43;11.43;;;3.80;;
317;SDS011;146;53.448;10.228;2023-02-01T01:10:10;9.30;;;3.23;;
317;SDS011;146;53.448;10.228;2023-02-01T01:12:36;10.67;;;3.27;;
317;SDS011;146;53.448;10.228;2023-02-01T01:15:04;12.63;;;3.50;;
317;SDS011;146;53.448;10.228;2023-02-01T01:17:31;7.93;;;3.03;;
317;SDS011;146;53.448;10.228;2023-02-01T01:19:58;10.70;;;4.43;;
317;SDS011;146;53.448;10.228;2023-02-01T01:22:26;13.40;;;4.70;;
317;SDS011;146;53.448;10.228;2023-02-01T01:24:53;11.33;;;4.80;;
317;SDS011;146;53.448;10.228;2023-02-01T01:27:20;7.30;;;2.70;;
317;SDS011;146;53.448;10.228;2023-02-01T01:29:49;9.10;;;3.50;;
317;SDS011;146;53.448;10.228;2023-02-01T01:32:15;19.53;;;3.63;;
317;SDS011;146;53.448;10.228;2023-02-01T01:34:42;8.57;;;3.40;;
317;SDS011;146;53.448;10.228;2023-02-01T01:37:09;8.73;;;3.60;;
317;SDS011;146;53.448;10.228;2023-02-01T01:39:37;11.30;;;3.87;;
317;SDS011;146;53.448;10.228;2023-02-01T01:42:04;17.70;;;4.50;;
317;SDS011;146;53.448;10.228;2023-02-01T01:47:22;14.50;;;4.13;;
317;SDS011;146;53.448;10.228;2023-02-01T01:49:50;12.47;;;4.10;;
317;SDS011;146;53.448;10.228;2023-02-01T01:52:17;9.93;;;3.30;;
317;SDS011;146;53.448;10.228;2023-02-01T01:54:46;11.97;;;3.37;;
317;SDS011;146;53.448;10.228;2023-02-01T01:57:16;19.23;;;4.67;;
317;SDS011;146;53.448;10.228;2023-02-01T01:59:47;10.30;;;3.80;;
317;SDS011;146;53.448;10.228;2023-02-01T02:02:18;9.83;;;3.20;;
317;SDS011;146;53.448;10.228;2023-02-01T02:04:45;9.80;;;3.97;;
317;SDS011;146;53.448;10.228;2023-02-01T02:07:14;9.67;;;3.80;;
317;SDS011;146;53.448;10.228;2023-02-01T02:09:47;8.30;;;3.10;;
317;SDS011;146;53.448;10.228;2023-02-01T02:12:14;11.03;;;3.70;;
317;SDS011;146;53.448;10.228;2023-02-01T02:14:41;7.90;;;3.17;;
317;SDS011;146;53.448;10.228;2023-02-01T02:17:12;11.47;;;4.27;;
317;SDS011;146;53.448;10.228;2023-02-01T02:22:52;12.23;;;3.53;;
317;SDS011;146;53.448;10.228;2023-02-01T02:25:45;20.00;;;5.17;;
317;SDS011;146;53.448;10.228;2023-02-01T02:28:50;12.50;;;4.03;;
317;SDS011;146;53.448;10.228;2023-02-01T02:31:58;18.17;;;4.17;;
317;SDS011;146;53.448;10.228;2023-02-01T02:34:50;12.87;;;4.13;;
317;SDS011;146;53.448;10.228;2023-02-01T02:37:21;12.53;;;3.23;;
317;SDS011;146;53.448;10.228;2023-02-01T02:40:02;16.00;;;4.37;;
317;SDS011;146;53.448;10.228;2023-02-01T02:42:35;12.23;;;3.63;;
317;SDS011;146;53.448;10.228;2023-02-01T02:45:26;11.30;;;4.90;;
317;SDS011;146;53.448;10.228;2023-02-01T02:48:17;15.70;;;3.50;;
317;SDS011;146;53.448;10.228;2023-02-01T02:50:53;10.10;;;4.33;;
317;SDS011;146;53.448;10.228;2023-02-01T02:53:46;9.10;;;3.47;;
317;SDS011;146;53.448;10.228;2023-02-01T02:56:34;12.30;;;3.93;;
317;SDS011;146;53.448;10.228;2023-02-01T02:59:20;9.47;;;3.80;;
317;SDS011;146;53.448;10.228;2023-02-01T03:02:07;17.50;;;4.30;;
317;SDS011;146;53.448;10.228;2023-02-01T03:04:52;11.77;;;4.80;;
317;SDS011;146;53.448;10.228;2023-02-01T03:10:30;13.67;;;3.70;;
317;SDS011;146;53.448;10.228;2023-02-01T03:13:03;14.53;;;3.20;;
317;SDS011;146;53.448;10.228;2023-02-01T03:15:35;11.83;;;3.30;;
317;SDS011;146;53.448;10.228;2023-02-01T03:18:13;8.17;;;2.90;;
317;SDS011;146;53.448;10.228;2023-02-01T03:20:44;8.00;;;3.37;;
317;SDS011;146;53.448;10.228;2023-02-01T03:23:16;19.43;;;4.37;;
317;SDS011;146;53.448;10.228;2023-02-01T03:25:47;13.60;;;4.10;;
317;SDS011;146;53.448;10.228;2023-02-01T03:28:16;13.73;;;3.50;;
317;SDS011;146;53.448;10.228;2023-02-01T03:30:46;11.30;;;3.67;;
317;SDS011;146;53.448;10.228;2023-02-01T03:33:15;11.77;;;3.50;;
317;SDS011;146;53.448;10.228;2023-02-01T03:35:52;7.70;;;3.80;;
317;SDS011;146;53.448;10.228;2023-02-01T03:38:26;6.67;;;2.30;;
317;SDS011;146;53.448;10.228;2023-02-01T03:40:58;13.10;;;2.90;;
317;SDS011;146;53.448;10.228;2023-02-01T03:43:32;10.40;;;2.77;;
317;SDS011;146;53.448;10.228;2023-02-01T03:46:04;6.43;;;1.90;;
317;SDS011;146;53.448;10.228;2023-02-01T03:48:38;7.87;;;2.70;;
317;SDS011;146;53.448;10.228;2023-02-01T03:51:06;5.43;;;2.90;;
317;SDS011;146;53.448;10.228;2023-02-01T03:53:36;3.30;;;1.30;;
317;SDS011;146;53.448;10.228;2023-02-01T03:56:04;6.60;;;1.67;;
317;SDS011;146;53.448;10.228;2023-02-01T03:58:32;7.13;;;1.67;;
317;SDS011;146;53.448;10.228;2023-02-01T04:00:59;1.27;;;1.00;;
317;SDS011;146;53.448;10.228;2023-02-01T04:03:26;5.93;;;1.43;;
317;SDS011;146;53.448;10.228;2023-02-01T04:05:54;3.80;;;2.30;;
317;SDS011;146;53.448;10.228;2023-02-01T04:08:21;7.63;;;1.97;;
317;SDS011;146;53.448;10.228;2023-02-01T04:10:50;6.43;;;1.87;;
317;SDS011;146;53.448;10.228;2023-02-01T04:13:17;10.13;;;3.60;;
317;SDS011;146;53.448;10.228;2023-02-01T04:15:44;9.33;;;2.33;;
317;SDS011;146;53.448;10.228;2023-02-01T04:18:11;9.00;;;2.93;;
317;SDS011;146;53.448;10.228;2023-02-01T04:20:38;10.57;;;2.17;;
317;SDS011;146;53.448;10.228;2023-02-01T04:23:05;7.37;;;2.40;;
317;SDS011;146;53.448;10.228;2023-02-01T04:25:31;4.87;;;1.50;;
317;SDS011;146;53.448;10.228;2023-02-01T04:27:59;6.57;;;2.33;;
317;SDS011;146;53.448;10.228;2023-02-01T04:30:26;7.33;;;2.53;;
317;SDS011;146;53.448;10.228;2023-02-01T04:32:54;6.00;;;1.73;;
317;SDS011;146;53.448;10.228;2023-02-01T04:35:21;3.40;;;1.47;;
317;SDS011;146;53.448;10.228;2023-02-01T04:37:47;4.97;;;1.60;;
317;SDS011;146;53.448;10.228;2023-02-01T04:40:14;7.37;;;2.30;;
317;SDS011;146;53.448;10.228;2023-02-01T04:42:41;4.67;;;1.40;;
317;SDS011;146;53.448;10.228;2023-02-01T04:45:10;7.57;;;2.40;;
317;SDS011;146;53.448;10.228;2023-02-01T04:47:37;4.47;;;1.70;;
317;SDS011;146;53.448;10.228;2023-02-01T04:50:04;5.87;;;2.07;;
317;SDS011;146;53.448;10.228;2023-02-01T04:52:32;4.70;;;1.27;;
317;SDS011;146;53.448;10.228;2023-02-01T04:54:59;4.27;;;1.90;;
317;SDS011;146;53.448;10.228;2023-02-01T04:57:28;8.87;;;2.00;;
317;SDS011;146;53.448;10.228;2023-02-01T04:59:55;6.50;;;1.67;;
317;SDS011;146;53.448;10.228;2023-02-01T05:02:23;4.40;;;2.17;;
317;SDS011;146;53.448;10.228;2023-02-01T05:04:50;3.33;;;2.50;;
317;SDS011;146;53.448;10.228;2023-02-01T05:07:16;8.77;;;1.60;;
317;SDS011;146;53.448;10.228;2023-02-01T05:09:43;5.30;;;2.07;;
317;SDS011;146;53.448;10.228;2023-02-01T05:12:10;2.90;;;1.30;;
317;SDS011;146;53.448;10.228;2023-02-01T05:14:51;5.70;;;1.57;;
317;SDS011;146;53.448;10.228;2023-02-01T05:17:17;2.40;;;1.00;;
317;SDS011;146;53.448;10.228;2023-02-01T05:19:45;2.30;;;1.00;;
317;SDS011;146;53.448;10.228;2023-02-01T05:22:12;3.23;;;1.20;;
317;SDS011;146;53.448;10.228;2023-02-01T05:24:39;1.30;;;1.20;;
317;SDS011;146;53.448;10.228;2023-02-01T05:27:06;1.70;;;0.83;;
317;SDS011;146;53.448;10.228;2023-02-01T05:29:33;3.80;;;0.57;;
317;SDS011;146;53.448;10.228;2023-02-01T05:31:59;1.60;;;0.63;;
317;SDS011;146;53.448;10.228;2023-02-01T05:34:26;0.50;;;0.50;;
317;SDS011;146;53.448;10.228;2023-02-01T05:36:55;1.70;;;0.70;;
317;SDS011;146;53.448;10.228;2023-02-01T05:39:22;0.60;;;0.60;;
317;SDS011;146;53.448;10.228;2023-02-01T05:41:48;0.63;;;0.50;;
317;SDS011;146;53.448;10.228;2023-02-01T05:44:15;0.57;;;0.57;;
317;SDS011;146;53.448;10.228;2023-02-01T05:46:42;1.37;;;0.80;;
317;SDS011;146;53.448;10.228;2023-02-01T05:49:09;0.80;;;0.57;;
317;SDS011;146;53.448;10.228;2023-02-01T05:51:36;0.73;;;0.70;;
317;SDS011;146;53.448;10.228;2023-02-01T05:54:04;1.10;;;1.00;;
317;SDS011;146;53.448;10.228;2023-02-01T05:56:31;0.80;;;0.80;;
317;SDS011;146;53.448;10.228;2023-02-01T05:58:57;1.73;;;0.87;;
317;SDS011;146;53.448;10.228;2023-02-01T06:01:24;0.60;;;0.60;;
317;SDS011;146;53.448;10.228;2023-02-01T06:03:51;0.53;;;0.53;;
317;SDS011;146;53.448;10.228;2023-02-01T06:06:18;0.93;;;0.80;;
317;SDS011;146;53.448;10.228;2023-02-01T06:08:45;0.80;;;0.60;;
317;SDS011;146;53.448;10.228;2023-02-01T06:11:13;0.87;;;0.60;;
317;SDS011;146;53.448;10.228;2023-02-01T06:13:40;0.40;;;0.40;;
317;SDS011;146;53.448;10.228;2023-02-01T06:16:07;1.33;;;1.23;;
317;SDS011;146;53.448;10.228;2023-02-01T06:18:34;3.67;;;0.67;;
317;SDS011;146;53.448;10.228;2023-02-01T06:21:01;1.70;;;0.80;;
317;SDS011;146;53.448;10.228;2023-02-01T06:23:28;0.63;;;0.50;;
317;SDS011;146;53.448;10.228;2023-02-01T06:25:59;0.70;;;0.70;;
317;SDS011;146;53.448;10.228;2023-02-01T06:28:29;0.80;;;0.70;;
317;SDS011;146;53.448;10.228;2023-02-01T06:30:56;0.73;;;0.73;;
317;SDS011;146;53.448;10.228;2023-02-01T06:33:23;0.80;;;0.80;;
317;SDS011;146;53.448;10.228;2023-02-01T06:35:56;1.17;;;0.70;;
317;SDS011;146;53.448;10.228;2023-02-01T06:38:23;2.70;;;1.17;;
317;SDS011;146;53.448;10.228;2023-02-01T06:40:51;1.33;;;1.23;;
317;SDS011;146;53.448;10.228;2023-02-01T06:43:19;1.90;;;1.17;;
317;SDS011;146;53.448;10.228;2023-02-01T06:45:47;1.73;;;1.50;;
317;SDS011;146;53.448;10.228;2023-02-01T06:48:14;3.60;;;1.60;;
317;SDS011;146;53.448;10.228;2023-02-01T06:50:40;2.73;;;1.43;;
317;SDS011;146;53.448;10.228;2023-02-01T06:53:07;1.90;;;1.47;;
317;SDS011;146;53.448;10.228;2023-02-01T06:55:34;3.93;;;1.50;;
317;SDS011;146;53.448;10.228;2023-02-01T06:58:01;3.53;;;1.53;;
317;SDS011;146;53.448;10.228;2023-02-01T07:00:28;4.10;;;1.73;;
317;SDS011;146;53.448;10.228;2023-02-01T07:02:57;2.57;;;1.63;;
317;SDS011;146;53.448;10.228;2023-02-01T07:05:24;3.60;;;2.10;;
317;SDS011;146;53.448;10.228;2023-02-01T07:07:50;4.87;;;1.90;;
317;SDS011;146;53.448;10.228;2023-02-01T07:10:17;5.03;;;1.97;;
317;SDS011;146;53.448;10.228;2023-02-01T07:12:44;5.73;;;2.73;;
317;SDS011;146;53.448;10.228;2023-02-01T07:15:11;6.23;;;2.50;;
317;SDS011;146;53.448;10.228;2023-02-01T07:17:38;15.37;;;2.40;;
317;SDS011;146;53.448;10.228;2023-02-01T07:20:07;7.57;;;2.17;;
317;SDS011;146;53.448;10.228;2023-02-01T07:22:38;7.70;;;2.30;;
317;SDS011;146;53.448;10.228;2023-02-01T07:25:07;5.90;;;2.33;;
317;SDS011;146;53.448;10.228;2023-02-01T07:27:34;7.80;;;2.27;;
317;SDS011;146;53.448;10.228;2023-02-01T07:30:02;5.33;;;2.10;;
317;SDS011;146;53.448;10.228;2023-02-01T07:32:31;7.83;;;2.33;;
317;SDS011;146;53.448;10.228;2023-02-01T07:35:00;7.73;;;2.27;;
317;SDS011;146;53.448;10.228;2023-02-01T07:37:31;6.30;;;3.00;;
317;SDS011;146;53.448;10.228;2023-02-01T07:40:02;9.53;;;2.90;;
317;SDS011;146;53.448;10.228;2023-02-01T07:42:30;6.60;;;3.20;;
317;SDS011;146;53.448;10.228;2023-02-01T07:45:00;8.60;;;3.80;;
317;SDS011;146;53.448;10.228;2023-02-01T07:51:32;8.67;;;2.43;;
317;SDS011;146;53.448;10.228;2023-02-01T07:58:26;11.17;;;3.07;;
317;SDS011;146;53.448;10.228;2023-02-01T08:01:43;13.97;;;3.63;;
317;SDS011;146;53.448;10.228;2023-02-01T08:08:22;11.07;;;3.27;;
317;SDS011;146;53.448;10.228;2023-02-01T08:11:45;12.70;;;3.40;;
317;SDS011;146;53.448;10.228;2023-02-01T08:14:51;8.17;;;3.50;;
317;SDS011;146;53.448;10.228;2023-02-01T08:17:54;10.87;;;4.40;;
317;SDS011;146;53.448;10.228;2023-02-01T08:21:12;8.80;;;2.83;;
317;SDS011;146;53.448;10.228;2023-02-01T08:23:48;13.10;;;4.30;;
317;SDS011;146;53.448;10.228;2023-02-01T08:26:24;9.33;;;3.43;;
317;SDS011;146;53.448;10.228;2023-02-01T08:29:34;12.03;;;4.10;;
317;SDS011;146;53.448;10.228;2023-02-01T08:32:29;13.17;;;4.00;;
317;SDS011;146;53.448;10.228;2023-02-01T08:35:07;11.90;;;3.50;;
317;SDS011;146;53.448;10.228;2023-02-01T08:37:43;12.73;;;4.57;;
317;SDS011;146;53.448;10.228;2023-02-01T08:40:20;17.50;;;4.30;;
317;SDS011;146;53.448;10.228;2023-02-01T08:43:13;15.50;;;6.70;;
317;SDS011;146;53.448;10.228;2023-02-01T08:45:47;10.87;;;3.63;;
317;SDS011;146;53.448;10.228;2023-02-01T08:48:17;9.73;;;3.40;;
317;SDS011;146;53.448;10.228;2023-02-01T08:50:51;13.07;;;3.57;;
317;SDS011;146;53.448;10.228;2023-02-01T08:53:51;10.57;;;3.80;;
317;SDS011;146;53.448;10.228;2023-02-01T08:56:48;6.77;;;2.80;;
317;SDS011;146;53.448;10.228;2023-02-01T08:59:22;11.03;;;3.53;;
317;SDS011;146;53.448;10.228;2023-02-01T09:01:52;6.67;;;3.10;;
317;SDS011;146;53.448;10.228;2023-02-01T09:04:40;10.30;;;3.40;;
317;SDS011;146;53.448;10.228;2023-02-01T09:10:21;12.30;;;4.37;;
317;SDS011;146;53.448;10.228;2023-02-01T09:12:48;13.13;;;4.10;;
317;SDS011;146;53.448;10.228;2023-02-01T09:15:15;11.20;;;3.90;;
317;SDS011;146;53.448;10.228;2023-02-01T09:17:43;13.93;;;3.67;;
317;SDS011;146;53.448;10.228;2023-02-01T09:20:10;12.40;;;3.30;;
317;SDS011;146;53.448;10.228;2023-02-01T09:22:38;7.60;;;2.90;;
317;SDS011;146;53.448;10.228;2023-02-01T09:25:06;8.60;;;3.13;;
317;SDS011;146;53.448;10.228;2023-02-01T09:27:33;14.50;;;3.97;;
317;SDS011;146;53.448;10.228;2023-02-01T09:30:00;8.40;;;2.80;;
317;SDS011;146;53.448;10.228;2023-02-01T09:32:27;11.70;;;2.93;;
317;SDS011;146;53.448;10.228;2023-02-01T09:34:55;9.37;;;4.40;;
317;SDS011;146;53.448;10.228;2023-02-01T09:37:22;5.93;;;2.10;;
317;SDS011;146;53.448;10.228;2023-02-01T09:39:49;9.37;;;4.20;;
317;SDS011;146;53.448;10.228;2023-02-01T09:42:25;8.97;;;3.80;;
317;SDS011;146;53.448;10.228;2023-02-01T09:45:17;6.10;;;2.73;;
317;SDS011;146;53.448;10.228;2023-02-01T09:47:49;11.13;;;3.53;;
317;SDS011;146;53.448;10.228;2023-02-01T09:50:22;14.10;;;3.93;;
317;SDS011;146;53.448;10.228;2023-02-01T09:52:57;8.57;;;2.80;;
317;SDS011;146;53.448;10.228;2023-02-01T09:55:30;12.43;;;3.83;;
317;SDS011;146;53.448;10.228;2023-02-01T09:58:04;11.73;;;3.53;;
317;SDS011;146;53.448;10.228;2023-02-01T10:00:34;7.63;;;3.90;;
317;SDS011;146;53.448;10.228;2023-02-01T10:03:04;11.27;;;3.70;;
317;SDS011;146;53.448;10.228;2023-02-01T10:05:42;15.67;;;3.73;;
317;SDS011;146;53.448;10.228;2023-02-01T10:08:23;10.60;;;3.13;;
317;SDS011;146;53.448;10.228;2023-02-01T10:11:01;8.73;;;2.10;;
317;SDS011;146;53.448;10.228;2023-02-01T10:13:38;5.87;;;2.37;;
317;SDS011;146;53.448;10.228;2023-02-01T10:16:20;9.80;;;3.30;;
317;SDS011;146;53.448;10.228;2023-02-01T10:19:05;14.10;;;3.03;;
317;SDS011;146;53.448;10.228;2023-02-01T10:21:50;5.13;;;2.77;;
317;SDS011;146;53.448;10.228;2023-02-01T10:24:26;6.60;;;2.83;;
317;SDS011;146;53.448;10.228;2023-02-01T10:27:01;8.97;;;2.70;;
317;SDS011;146;53.448;10.228;2023-02-01T10:29:36;6.50;;;2.13;;
317;SDS011;146;53.448;10.228;2023-02-01T10:32:09;10.10;;;3.23;;
317;SDS011;146;53.448;10.228;2023-02-01T10:34:39;9.00;;;2.50;;
317;SDS011;146;53.448;10.228;2023-02-01T10:37:11;7.83;;;1.83;;
317;SDS011;146;53.448;10.228;2023-02-01T10:39:45;5.07;;;2.03;;
317;SDS011;146;53.448;10.228;2023-02-01T10:42:16;9.83;;;2.87;;
317;SDS011;146;53.448;10.228;2023-02-01T10:44:46;6.50;;;2.13;;
317;SDS011;146;53.448;10.228;2023-02-01T10:47:14;9.07;;;2.33;;
317;SDS011;146;53.448;10.228;2023-02-01T10:49:43;6.00;;;2.00;;
317;SDS011;146;53.448;10.228;2023-02-01T10:52:18;6.33;;;3.00;;
317;SDS011;146;53.448;10.228;2023-02-01T10:54:52;8.80;;;2.10;;
317;SDS011;146;53.448;10.228;2023-02-01T10:57:20;4.80;;;2.13;;
317;SDS011;146;53.448;10.228;2023-02-01T10:59:49;13.10;;;2.80;;
317;SDS011;146;53.448;10.228;2023-02-01T11:02:19;8.27;;;3.37;;
317;SDS011;146;53.448;10.228;2023-02-01T11:07:38;9.03;;;3.43;;
317;SDS011;146;53.448;10.228;2023-02-01T11:10:13;11.67;;;3.50;;
317;SDS011;146;53.448;10.228;2023-02-01T11:13:01;11.97;;;4.60;;
317;SDS011;146;53.448;10.228;2023-02-01T11:15:28;11.47;;;3.97;;
317;SDS011;146;53.448;10.228;2023-02-01T11:18:07;4.93;;;2.60;;
317;SDS011;146;53.448;10.228;2023-02-01T11:20:42;6.90;;;2.13;;
317;SDS011;146;53.448;10.228;2023-02-01T11:23:16;5.70;;;2.30;;
317;SDS011;146;53.448;10.228;2023-02-01T11:25:48;4.57;;;2.30;;
317;SDS011;146;53.448;10.228;2023-02-01T11:28:17;11.67;;;4.20;;
317;SDS011;146;53.448;10.228;2023-02-01T11:30:46;9.03;;;6.00;;
317;SDS011;146;53.448;10.228;2023-02-01T11:33:15;5.33;;;2.70;;
317;SDS011;146;53.448;10.228;2023-02-01T11:35:43;7.30;;;4.10;;
317;SDS011;146;53.448;10.228;2023-02-01T11:38:12;14.43;;;3.60;;
317;SDS011;146;53.448;10.228;2023-02-01T11:40:46;13.20;;;3.50;;
317;SDS011;146;53.448;10.228;2023-02-01T11:43:14;9.53;;;3.00;;
317;SDS011;146;53.448;10.228;2023-02-01T11:45:53;12.77;;;3.40;;
317;SDS011;146;53.448;10.228;2023-02-01T11:48:20;9.30;;;3.50;;
317;SDS011;146;53.448;10.228;2023-02-01T11:50:51;10.33;;;2.80;;
317;SDS011;146;53.448;10.228;2023-02-01T11:53:32;4.13;;;2.07;;
317;SDS011;146;53.448;10.228;2023-02-01T11:56:10;8.10;;;3.90;;
317;SDS011;146;53.448;10.228;2023-02-01T11:58:53;3.90;;;1.90;;
317;SDS011;146;53.448;10.228;2023-02-01T12:01:39;9.50;;;1.80;;
317;SDS011;146;53.448;10.228;2023-02-01T12:04:22;6.37;;;2.27;;
317;SDS011;146;53.448;10.228;2023-02-01T12:07:13;6.10;;;2.50;;
317;SDS011;146;53.448;10.228;2023-02-01T12:09:49;6.27;;;2.70;;
317;SDS011;146;53.448;10.228;2023-02-01T12:12:31;8.40;;;2.57;;
317;SDS011;146;53.448;10.228;2023-02-01T12:15:20;5.60;;;2.40;;
317;SDS011;146;53.448;10.228;2023-02-01T12:17:59;9.97;;;1.97;;
317;SDS011;146;53.448;10.228;2023-02-01T12:20:53;6.30;;;2.00;;
317;SDS011;146;53.448;10.228;2023-02-01T12:23:35;3.77;;;1.90;;
317;SDS011;146;53.448;10.228;2023-02-01T12:29:11;8.90;;;2.77;;
317;SDS011;146;53.448;10.228;2023-02-01T12:31:50;7.37;;;2.80;;
317;SDS011;146;53.448;10.228;2023-02-01T12:34:34;4.73;;;2.27;;
317;SDS011;146;53.448;10.228;2023-02-01T12:37:21;3.97;;;2.30;;
317;SDS011;146;53.448;10.228;2023-02-01T12:40:01;8.13;;;2.10;;
317;SDS011;146;53.448;10.228;2023-02-01T12:42:36;5.93;;;1.80;;
317;SDS011;146;53.448;10.228;2023-02-01T12:45:09;4.33;;;1.83;;
317;SDS011;146;53.448;10.228;2023-02-01T12:47:40;4.73;;;2.00;;
317;SDS011;146;53.448;10.228;2023-02-01T12:50:12;4.90;;;2.57;;
317;SDS011;146;53.448;10.228;2023-02-01T12:52:47;3.63;;;1.60;;
317;SDS011;146;53.448;10.228;2023-02-01T12:55:17;2.27;;;1.30;;
317;SDS011;146;53.448;10.228;2023-02-01T12:57:51;0.80;;;0.60;;
317;SDS011;146;53.448;10.228;2023-02-01T13:00:23;4.80;;;1.10;;
317;SDS011;146;53.448;10.228;2023-02-01T13:03:00;4.77;;;1.00;;
317;SDS011;146;53.448;10.228;2023-02-01T13:05:41;2.70;;;0.80;;
317;SDS011;146;53.448;10.228;2023-02-01T13:08:16;1.37;;;0.70;;
317;SDS011;146;53.448;10.228;2023-02-01T13:10:50;2.70;;;0.70;;
317;SDS011;146;53.448;10.228;2023-02-01T13:13:26;2.43;;;0.57;;
317;SDS011;146;53.448;10.228;2023-02-01T13:15:58;0.57;;;0.43;;
317;SDS011;146;53.448;10.228;2023-02-01T13:18:34;0.60;;;0.60;;
317;SDS011;146;53.448;10.228;2023-02-01T13:21:03;0.60;;;0.60;;
317;SDS011;146;53.448;10.228;2023-02-01T13:23:34;0.73;;;0.60;;
317;SDS011;146;53.448;10.228;2023-02-01T13:26:03;0.70;;;0.60;;
317;SDS011;146;53.448;10.228;2023-02-01T13:28:34;0.60;;;0.60;;
317;SDS011;146;53.448;10.228;2023-02-01T13:31:20;1.87;;;0.93;;
317;SDS011;146;53.448;10.228;2023-02-01T13:34:26;0.80;;;0.80;;
317;SDS011;146;53.448;10.228;2023-02-01T13:37:14;1.20;;;1.20;;
317;SDS011;146;53.448;10.228;2023-02-01T13:39:55;1.37;;;0.80;;
317;SDS011;146;53.448;10.228;2023-02-01T13:42:40;0.80;;;0.80;;
317;SDS011;146;53.448;10.228;2023-02-01T13:45:14;0.90;;;0.70;;
317;SDS011;146;53.448;10.228;2023-02-01T13:47:44;1.30;;;1.00;;
317;SDS011;146;53.448;10.228;2023-02-01T13:50:19;5.03;;;4.60;;
317;SDS011;146;53.448;10.228;2023-02-01T13:52:51;2.53;;;1.43;;
317;SDS011;146;53.448;10.228;2023-02-01T13:55:28;0.67;;;0.67;;
317;SDS011;146;53.448;10.228;2023-02-01T14:07:23;0.60;;;0.50;;
317;SDS011;146;53.448;10.228;2023-02-01T14:53:59;3.30;;;0.93;;
317;SDS011;146;53.448;10.228;2023-02-01T15:00:58;3.40;;;1.70;;
317;SDS011;146;53.448;10.228;2023-02-01T15:07:48;2.43;;;1.00;;
317;SDS011;146;53.448;10.228;2023-02-01T15:10:44;4.73;;;1.53;;
317;SDS011;146;53.448;10.228;2023-02-01T15:13:24;2.93;;;1.53;;
317;SDS011;146;53.448;10.228;2023-02-01T15:23:32;6.17;;;2.20;;
317;SDS011;146;53.448;10.228;2023-02-01T15:25:59;3.53;;;1.50;;
317;SDS011;146;53.448;10.228;2023-02-01T15:28:49;9.47;;;2.53;;
317;SDS011;146;53.448;10.228;2023-02-01T15:31:31;3.23;;;1.63;;
317;SDS011;146;53.448;10.228;2023-02-01T15:34:43;6.67;;;2.70;;
317;SDS011;146;53.448;10.228;2023-02-01T15:37:44;13.30;;;2.40;;
317;SDS011;146;53.448;10.228;2023-02-01T15:40:20;6.43;;;1.43;;
317;SDS011;146;53.448;10.228;2023-02-01T15:45:47;8.40;;;1.70;;
317;SDS011;146;53.448;10.228;2023-02-01T15:48:58;6.27;;;1.47;;
317;SDS011;146;53.448;10.228;2023-02-01T15:51:55;5.77;;;1.60;;
317;SDS011;146;53.448;10.228;2023-02-01T15:58:09;3.53;;;1.67;;
317;SDS011;146;53.448;10.228;2023-02-01T16:03:35;6.00;;;1.80;;
317;SDS011;146;53.448;10.228;2023-02-01T16:05:32;3.60;;;1.60;;
317;SDS011;146;53.448;10.228;2023-02-01T16:08:21;4.23;;;1.53;;
317;SDS011;146;53.448;10.228;2023-02-01T16:11:00;4.00;;;1.60;;
317;SDS011;146;53.448;10.228;2023-02-01T16:16:54;5.40;;;1.97;;
317;SDS011;146;53.448;10.228;2023-02-01T16:25:26;5.60;;;2.17;;
317;SDS011;146;53.448;10.228;2023-02-01T16:49:52;5.80;;;2.20;;
317;SDS011;146;53.448;10.228;2023-02-01T16:52:19;8.53;;;3.33;;
317;SDS011;146;53.448;10.228;2023-02-01T16:54:47;7.63;;;2.47;;
317;SDS011;146;53.448;10.228;2023-02-01T16:57:15;10.13;;;3.30;;
317;SDS011;146;53.448;10.228;2023-02-01T16:59:44;13.83;;;3.87;;
317;SDS011;146;53.448;10.228;2023-02-01T17:02:11;15.60;;;3.77;;
317;SDS011;146;53.448;10.228;2023-02-01T17:15:08;13.93;;;3.60;;
317;SDS011;146;53.448;10.228;2023-02-01T17:17:37;18.93;;;3.90;;
317;SDS011;146;53.448;10.228;2023-02-01T17:20:18;17.17;;;3.67;;
317;SDS011;146;53.448;10.228;2023-02-01T17:22:47;11.30;;;3.97;;
317;SDS011;146;53.448;10.228;2023-02-01T17:25:14;11.33;;;4.47;;
317;SDS011;146;53.448;10.228;2023-02-01T17:27:42;10.30;;;3.90;;
317;SDS011;146;53.448;10.228;2023-02-01T17:30:12;11.33;;;4.40;;
317;SDS011;146;53.448;10.228;2023-02-01T17:32:40;6.93;;;3.07;;
317;SDS011;146;53.448;10.228;2023-02-01T17:35:11;8.90;;;3.23;;
317;SDS011;146;53.448;10.228;2023-02-01T17:37:44;15.27;;;3.40;;
317;SDS011;146;53.448;10.228;2023-02-01T17:40:11;16.87;;;4.70;;
317;SDS011;146;53.448;10.228;2023-02-01T17:42:38;12.03;;;5.37;;
317;SDS011;146;53.448;10.228;2023-02-01T17:45:14;8.60;;;2.53;;
317;SDS011;146;53.448;10.228;2023-02-01T17:47:48;15.93;;;3.60;;
317;SDS011;146;53.448;10.228;2023-02-01T17:50:15;14.07;;;3.57;;
317;SDS011;146;53.448;10.228;2023-02-01T17:52:42;13.53;;;4.20;;
317;SDS011;146;53.448;10.228;2023-02-01T17:55:14;10.03;;;3.40;;
317;SDS011;146;53.448;10.228;2023-02-01T17:57:43;17.33;;;2.83;;
317;SDS011;146;53.448;10.228;2023-02-01T18:00:10;9.40;;;3.07;;
317;SDS011;146;53.448;10.228;2023-02-01T18:02:39;8.80;;;3.13;;
317;SDS011;146;53.448;10.228;2023-02-01T18:05:12;10.27;;;3.70;;
317;SDS011;146;53.448;10.228;2023-02-01T18:07:43;13.47;;;3.30;;
317;SDS011;146;53.448;10.228;2023-02-01T18:10:10;8.90;;;3.50;;
317;SDS011;146;53.448;10.228;2023-02-01T18:12:37;10.80;;;4.00;;
317;SDS011;146;53.448;10.228;2023-02-01T18:15:11;8.10;;;2.93;;
317;SDS011;146;53.448;10.228;2023-02-01T18:17:42;8.23;;;2.83;;
317;SDS011;146;53.448;10.228;2023-02-01T18:20:12;5.43;;;2.70;;
317;SDS011;146;53.448;10.228;2023-02-01T18:22:40;8.40;;;2.60;;
317;SDS011;146;53.448;10.228;2023-02-01T18:25:18;5.10;;;2.53;;
317;SDS011;146;53.448;10.228;2023-02-01T18:27:46;7.33;;;2.87;;
317;SDS011;146;53.448;10.228;2023-02-01T18:30:15;5.50;;;2.97;;
317;SDS011;146;53.448;10.228;2023-02-01T18:32:42;5.53;;;3.10;;